sensor_id;sensor_type;location;lat;lon;timestamp;P1;durP1;ratioP1;P2;durP2;ratioP2
24421;SDS011;12600;53.326;-6.298;2023-05-27T00:02:16;10.30;;;3.30;;
24421;SDS011;12600;53.326;-6.298;2023-05-27T00:05:06;7.35;;;3.40;;
24421;SDS011;12600;53.326;-6.298;2023-05-27T00:07:56;9.82;;;3.25;;
24421;SDS011;12600;53.326;-6.298;2023-05-27T00:10:45;6.93;;;3.40;;
24421;SDS011;12600;53.326;-6.298;2023-05-27T00:13:35;10.00;;;3.30;;
24421;SDS011;12600;53.326;-6.298;2023-05-27T00:16:26;8.43;;;3.50;;
24421;SDS011;12600;53.326;-6.298;2023-05-27T00:19:16;9.20;;;3.42;;
24421;SDS011;12600;53.326;-6.298;2023-05-27T00:22:05;11.75;;;3.58;;
24421;SDS011;12600;53.326;-6.298;2023-05-27T00:24:55;11.88;;;4.05;;
24421;SDS011;12600;53.326;-6.298;2023-05-27T00:27:44;12.13;;;3.90;;
24421;SDS011;12600;53.326;-6.298;2023-05-27T00:30:34;10.35;;;3.80;;
24421;SDS011;12600;53.326;-6.298;2023-05-27T00:33:25;10.80;;;3.75;;
24421;SDS011;12600;53.326;-6.298;2023-05-27T00:36:14;11.48;;;3.70;;
24421;SDS011;12600;53.326;-6.298;2023-05-27T00:39:04;12.77;;;3.90;;
24421;SDS011;12600;53.326;-6.298;2023-05-27T00:41:54;15.80;;;3.92;;
24421;SDS011;12600;53.326;-6.298;2023-05-27T00:44:44;11.93;;;4.47;;
24421;SDS011;12600;53.326;-6.298;2023-05-27T00:47:34;20.10;;;4.60;;
24421;SDS011;12600;53.326;-6.298;2023-05-27T00:50:25;12.52;;;4.00;;
24421;SDS011;12600;53.326;-6.298;2023-05-27T00:53:15;13.15;;;3.97;;
24421;SDS011;12600;53.326;-6.298;2023-05-27T00:56:05;12.13;;;4.35;;
24421;SDS011;12600;53.326;-6.298;2023-05-27T00:58:56;16.08;;;4.65;;
24421;SDS011;12600;53.326;-6.298;2023-05-27T01:01:45;11.98;;;5.28;;
24421;SDS011;12600;53.326;-6.298;2023-05-27T01:04:36;11.25;;;4.90;;
24421;SDS011;12600;53.326;-6.298;2023-05-27T01:07:27;14.05;;;4.90;;
24421;SDS011;12600;53.326;-6.298;2023-05-27T01:10:33;11.00;;;4.50;;
24421;SDS011;12600;53.326;-6.298;2023-05-27T01:13:31;16.65;;;4.40;;
24421;SDS011;12600;53.326;-6.298;2023-05-27T01:16:26;15.88;;;4.75;;
24421;SDS011;12600;53.326;-6.298;2023-05-27T01:19:22;14.50;;;5.30;;
24421;SDS011;12600;53.326;-6.298;2023-05-27T01:22:18;15.15;;;5.18;;
24421;SDS011;12600;53.326;-6.298;2023-05-27T01:25:12;21.63;;;6.35;;
24421;SDS011;12600;53.326;-6.298;2023-05-27T01:28:03;14.32;;;4.97;;
24421;SDS011;12600;53.326;-6.298;2023-05-27T01:30:54;15.13;;;5.22;;
24421;SDS011;12600;53.326;-6.298;2023-05-27T01:33:58;17.25;;;4.97;;
24421;SDS011;12600;53.326;-6.298;2023-05-27T01:39:47;22.15;;;6.15;;
24421;SDS011;12600;53.326;-6.298;2023-05-27T01:42:39;17.23;;;5.40;;
24421;SDS011;12600;53.326;-6.298;2023-05-27T01:48:21;16.38;;;5.30;;
24421;SDS011;12600;53.326;-6.298;2023-05-27T01:51:11;13.35;;;5.43;;
24421;SDS011;12600;53.326;-6.298;2023-05-27T01:54:00;14.65;;;5.75;;
24421;SDS011;12600;53.326;-6.298;2023-05-27T01:56:49;14.57;;;5.22;;
24421;SDS011;12600;53.326;-6.298;2023-05-27T01:59:40;14.57;;;5.15;;
24421;SDS011;12600;53.326;-6.298;2023-05-27T02:02:30;16.10;;;5.00;;
24421;SDS011;12600;53.326;-6.298;2023-05-27T02:05:19;12.93;;;4.70;;
24421;SDS011;12600;53.326;-6.298;2023-05-27T02:08:09;13.05;;;5.15;;
24421;SDS011;12600;53.326;-6.298;2023-05-27T02:11:00;12.93;;;4.95;;
24421;SDS011;12600;53.326;-6.298;2023-05-27T02:13:50;13.13;;;5.00;;
24421;SDS011;12600;53.326;-6.298;2023-05-27T02:16:41;11.82;;;4.78;;
24421;SDS011;12600;53.326;-6.298;2023-05-27T02:19:31;11.88;;;4.30;;
24421;SDS011;12600;53.326;-6.298;2023-05-27T02:22:21;13.57;;;4.72;;
24421;SDS011;12600;53.326;-6.298;2023-05-27T02:25:11;14.52;;;4.75;;
24421;SDS011;12600;53.326;-6.298;2023-05-27T02:28:00;13.18;;;4.75;;
24421;SDS011;12600;53.326;-6.298;2023-05-27T02:30:51;11.50;;;4.38;;
24421;SDS011;12600;53.326;-6.298;2023-05-27T02:33:42;11.57;;;4.30;;
24421;SDS011;12600;53.326;-6.298;2023-05-27T02:36:32;14.00;;;4.13;;
24421;SDS011;12600;53.326;-6.298;2023-05-27T02:39:22;12.85;;;4.45;;
24421;SDS011;12600;53.326;-6.298;2023-05-27T02:42:11;13.20;;;4.18;;
24421;SDS011;12600;53.326;-6.298;2023-05-27T02:45:01;15.43;;;4.78;;
24421;SDS011;12600;53.326;-6.298;2023-05-27T02:47:53;14.48;;;4.07;;
24421;SDS011;12600;53.326;-6.298;2023-05-27T02:50:45;10.60;;;4.13;;
24421;SDS011;12600;53.326;-6.298;2023-05-27T02:53:35;12.63;;;5.32;;
24421;SDS011;12600;53.326;-6.298;2023-05-27T02:56:24;10.25;;;4.90;;
24421;SDS011;12600;53.326;-6.298;2023-05-27T02:59:15;11.02;;;4.25;;
24421;SDS011;12600;53.326;-6.298;2023-05-27T03:02:05;12.75;;;4.18;;
24421;SDS011;12600;53.326;-6.298;2023-05-27T03:04:54;8.73;;;3.88;;
24421;SDS011;12600;53.326;-6.298;2023-05-27T03:07:46;8.23;;;3.70;;
24421;SDS011;12600;53.326;-6.298;2023-05-27T03:10:35;10.02;;;4.05;;
24421;SDS011;12600;53.326;-6.298;2023-05-27T03:13:24;9.85;;;4.40;;
24421;SDS011;12600;53.326;-6.298;2023-05-27T03:16:14;9.00;;;3.90;;
24421;SDS011;12600;53.326;-6.298;2023-05-27T03:19:07;9.00;;;3.67;;
24421;SDS011;12600;53.326;-6.298;2023-05-27T03:21:57;9.65;;;3.92;;
24421;SDS011;12600;53.326;-6.298;2023-05-27T03:24:48;10.00;;;3.97;;
24421;SDS011;12600;53.326;-6.298;2023-05-27T03:27:40;7.38;;;3.50;;
24421;SDS011;12600;53.326;-6.298;2023-05-27T03:30:34;9.82;;;3.47;;
24421;SDS011;12600;53.326;-6.298;2023-05-27T03:33:23;9.73;;;3.28;;
24421;SDS011;12600;53.326;-6.298;2023-05-27T03:36:13;7.22;;;2.88;;
24421;SDS011;12600;53.326;-6.298;2023-05-27T03:39:03;8.52;;;3.45;;
24421;SDS011;12600;53.326;-6.298;2023-05-27T03:41:56;10.13;;;3.33;;
24421;SDS011;12600;53.326;-6.298;2023-05-27T03:44:46;9.40;;;3.28;;
24421;SDS011;12600;53.326;-6.298;2023-05-27T03:47:36;7.90;;;3.17;;
24421;SDS011;12600;53.326;-6.298;2023-05-27T03:50:25;10.02;;;3.25;;
24421;SDS011;12600;53.326;-6.298;2023-05-27T03:53:15;9.93;;;3.45;;
24421;SDS011;12600;53.326;-6.298;2023-05-27T03:56:04;10.95;;;3.20;;
24421;SDS011;12600;53.326;-6.298;2023-05-27T03:58:55;6.90;;;2.90;;
24421;SDS011;12600;53.326;-6.298;2023-05-27T04:01:47;6.90;;;3.10;;
24421;SDS011;12600;53.326;-6.298;2023-05-27T04:04:38;8.52;;;3.63;;
24421;SDS011;12600;53.326;-6.298;2023-05-27T04:07:27;8.32;;;3.38;;
24421;SDS011;12600;53.326;-6.298;2023-05-27T04:10:18;16.42;;;3.80;;
24421;SDS011;12600;53.326;-6.298;2023-05-27T04:13:08;9.43;;;3.40;;
24421;SDS011;12600;53.326;-6.298;2023-05-27T04:15:59;8.65;;;3.17;;
24421;SDS011;12600;53.326;-6.298;2023-05-27T04:18:48;9.90;;;3.28;;
24421;SDS011;12600;53.326;-6.298;2023-05-27T04:21:39;7.60;;;3.45;;
24421;SDS011;12600;53.326;-6.298;2023-05-27T04:24:29;6.60;;;2.90;;
24421;SDS011;12600;53.326;-6.298;2023-05-27T04:27:18;6.20;;;2.90;;
24421;SDS011;12600;53.326;-6.298;2023-05-27T04:30:08;7.60;;;3.55;;
24421;SDS011;12600;53.326;-6.298;2023-05-27T04:33:00;7.63;;;3.53;;
24421;SDS011;12600;53.326;-6.298;2023-05-27T04:35:50;9.07;;;3.97;;
24421;SDS011;12600;53.326;-6.298;2023-05-27T04:38:42;8.10;;;3.72;;
24421;SDS011;12600;53.326;-6.298;2023-05-27T04:41:32;11.18;;;3.63;;
24421;SDS011;12600;53.326;-6.298;2023-05-27T04:44:57;10.68;;;3.60;;
24421;SDS011;12600;53.326;-6.298;2023-05-27T04:47:48;11.80;;;3.78;;
24421;SDS011;12600;53.326;-6.298;2023-05-27T04:50:41;10.75;;;3.63;;
24421;SDS011;12600;53.326;-6.298;2023-05-27T04:53:31;8.18;;;3.83;;
24421;SDS011;12600;53.326;-6.298;2023-05-27T04:56:22;9.27;;;3.80;;
24421;SDS011;12600;53.326;-6.298;2023-05-27T04:59:11;11.63;;;4.72;;
24421;SDS011;12600;53.326;-6.298;2023-05-27T05:02:04;9.35;;;4.50;;
24421;SDS011;12600;53.326;-6.298;2023-05-27T05:05:35;10.70;;;4.30;;
24421;SDS011;12600;53.326;-6.298;2023-05-27T05:08:29;12.25;;;4.57;;
24421;SDS011;12600;53.326;-6.298;2023-05-27T05:11:18;11.32;;;4.40;;
24421;SDS011;12600;53.326;-6.298;2023-05-27T05:14:08;10.60;;;5.05;;
24421;SDS011;12600;53.326;-6.298;2023-05-27T05:16:57;12.40;;;4.90;;
24421;SDS011;12600;53.326;-6.298;2023-05-27T05:19:47;11.52;;;4.53;;
24421;SDS011;12600;53.326;-6.298;2023-05-27T05:22:38;12.90;;;4.85;;
24421;SDS011;12600;53.326;-6.298;2023-05-27T05:25:30;11.55;;;5.57;;
24421;SDS011;12600;53.326;-6.298;2023-05-27T05:28:23;13.93;;;6.68;;
24421;SDS011;12600;53.326;-6.298;2023-05-27T05:31:13;13.13;;;5.85;;
24421;SDS011;12600;53.326;-6.298;2023-05-27T05:34:03;22.27;;;5.93;;
24421;SDS011;12600;53.326;-6.298;2023-05-27T05:36:55;15.48;;;5.85;;
24421;SDS011;12600;53.326;-6.298;2023-05-27T05:39:44;14.25;;;5.72;;
24421;SDS011;12600;53.326;-6.298;2023-05-27T05:42:35;16.80;;;6.03;;
24421;SDS011;12600;53.326;-6.298;2023-05-27T05:45:26;20.13;;;6.30;;
24421;SDS011;12600;53.326;-6.298;2023-05-27T05:48:16;18.08;;;6.28;;
24421;SDS011;12600;53.326;-6.298;2023-05-27T05:51:06;15.82;;;5.80;;
24421;SDS011;12600;53.326;-6.298;2023-05-27T05:53:56;15.85;;;5.63;;
24421;SDS011;12600;53.326;-6.298;2023-05-27T05:56:47;15.05;;;5.68;;
24421;SDS011;12600;53.326;-6.298;2023-05-27T05:59:38;15.38;;;5.38;;
24421;SDS011;12600;53.326;-6.298;2023-05-27T06:02:28;14.10;;;5.50;;
24421;SDS011;12600;53.326;-6.298;2023-05-27T06:05:18;11.13;;;5.35;;
24421;SDS011;12600;53.326;-6.298;2023-05-27T06:08:09;13.32;;;5.97;;
24421;SDS011;12600;53.326;-6.298;2023-05-27T06:11:02;15.10;;;6.15;;
24421;SDS011;12600;53.326;-6.298;2023-05-27T06:13:54;15.10;;;5.68;;
24421;SDS011;12600;53.326;-6.298;2023-05-27T06:16:44;19.27;;;6.20;;
24421;SDS011;12600;53.326;-6.298;2023-05-27T06:19:34;12.18;;;6.63;;
24421;SDS011;12600;53.326;-6.298;2023-05-27T06:22:25;13.52;;;6.07;;
24421;SDS011;12600;53.326;-6.298;2023-05-27T06:25:17;16.30;;;5.90;;
24421;SDS011;12600;53.326;-6.298;2023-05-27T06:28:13;11.93;;;4.85;;
24421;SDS011;12600;53.326;-6.298;2023-05-27T06:31:03;13.63;;;4.97;;
24421;SDS011;12600;53.326;-6.298;2023-05-27T06:33:54;10.65;;;3.83;;
24421;SDS011;12600;53.326;-6.298;2023-05-27T06:36:44;11.40;;;4.13;;
24421;SDS011;12600;53.326;-6.298;2023-05-27T06:39:39;10.98;;;3.47;;
24421;SDS011;12600;53.326;-6.298;2023-05-27T06:42:32;8.75;;;3.70;;
24421;SDS011;12600;53.326;-6.298;2023-05-27T06:45:37;10.60;;;3.97;;
24421;SDS011;12600;53.326;-6.298;2023-05-27T06:48:58;13.55;;;4.43;;
24421;SDS011;12600;53.326;-6.298;2023-05-27T06:51:49;10.20;;;4.38;;
24421;SDS011;12600;53.326;-6.298;2023-05-27T06:54:38;10.07;;;4.60;;
24421;SDS011;12600;53.326;-6.298;2023-05-27T06:57:51;9.93;;;4.00;;
24421;SDS011;12600;53.326;-6.298;2023-05-27T07:00:55;11.18;;;4.05;;
24421;SDS011;12600;53.326;-6.298;2023-05-27T07:03:55;12.23;;;4.55;;
24421;SDS011;12600;53.326;-6.298;2023-05-27T07:07:00;12.43;;;4.63;;
24421;SDS011;12600;53.326;-6.298;2023-05-27T07:09:50;10.80;;;4.60;;
24421;SDS011;12600;53.326;-6.298;2023-05-27T07:12:41;12.80;;;4.60;;
24421;SDS011;12600;53.326;-6.298;2023-05-27T07:15:57;9.05;;;4.40;;
24421;SDS011;12600;53.326;-6.298;2023-05-27T07:18:46;8.50;;;4.63;;
24421;SDS011;12600;53.326;-6.298;2023-05-27T07:21:36;11.63;;;4.65;;
24421;SDS011;12600;53.326;-6.298;2023-05-27T07:24:35;12.10;;;4.28;;
24421;SDS011;12600;53.326;-6.298;2023-05-27T07:27:24;9.40;;;4.40;;
24421;SDS011;12600;53.326;-6.298;2023-05-27T07:30:19;11.25;;;4.60;;
24421;SDS011;12600;53.326;-6.298;2023-05-27T07:33:15;10.95;;;4.20;;
24421;SDS011;12600;53.326;-6.298;2023-05-27T07:36:05;10.35;;;4.45;;
24421;SDS011;12600;53.326;-6.298;2023-05-27T07:38:55;11.65;;;4.75;;
24421;SDS011;12600;53.326;-6.298;2023-05-27T07:41:46;8.80;;;3.97;;
24421;SDS011;12600;53.326;-6.298;2023-05-27T07:44:35;9.27;;;4.43;;
24421;SDS011;12600;53.326;-6.298;2023-05-27T07:47:25;9.45;;;4.20;;
24421;SDS011;12600;53.326;-6.298;2023-05-27T07:50:15;9.35;;;4.13;;
24421;SDS011;12600;53.326;-6.298;2023-05-27T07:53:15;9.93;;;4.85;;
24421;SDS011;12600;53.326;-6.298;2023-05-27T07:56:05;9.73;;;5.07;;
24421;SDS011;12600;53.326;-6.298;2023-05-27T07:58:56;9.82;;;4.80;;
24421;SDS011;12600;53.326;-6.298;2023-05-27T08:01:46;8.50;;;4.32;;
24421;SDS011;12600;53.326;-6.298;2023-05-27T08:04:36;8.07;;;3.97;;
24421;SDS011;12600;53.326;-6.298;2023-05-27T08:07:48;11.20;;;3.67;;
24421;SDS011;12600;53.326;-6.298;2023-05-27T08:11:07;8.82;;;3.35;;
24421;SDS011;12600;53.326;-6.298;2023-05-27T08:14:34;7.63;;;3.30;;
24421;SDS011;12600;53.326;-6.298;2023-05-27T08:17:43;10.80;;;3.50;;
24421;SDS011;12600;53.326;-6.298;2023-05-27T08:20:53;8.48;;;4.05;;
24421;SDS011;12600;53.326;-6.298;2023-05-27T08:24:03;9.32;;;3.80;;
24421;SDS011;12600;53.326;-6.298;2023-05-27T08:27:12;10.50;;;4.20;;
24421;SDS011;12600;53.326;-6.298;2023-05-27T08:30:26;9.63;;;4.57;;
24421;SDS011;12600;53.326;-6.298;2023-05-27T08:33:23;14.65;;;5.15;;
24421;SDS011;12600;53.326;-6.298;2023-05-27T08:36:13;9.52;;;5.22;;
24421;SDS011;12600;53.326;-6.298;2023-05-27T08:39:07;6.00;;;3.75;;
24421;SDS011;12600;53.326;-6.298;2023-05-27T08:42:02;7.75;;;3.70;;
24421;SDS011;12600;53.326;-6.298;2023-05-27T08:44:52;6.07;;;3.08;;
24421;SDS011;12600;53.326;-6.298;2023-05-27T08:47:44;6.45;;;3.25;;
24421;SDS011;12600;53.326;-6.298;2023-05-27T08:50:43;8.50;;;3.30;;
24421;SDS011;12600;53.326;-6.298;2023-05-27T08:53:32;8.52;;;3.30;;
24421;SDS011;12600;53.326;-6.298;2023-05-27T08:56:24;6.53;;;3.30;;
24421;SDS011;12600;53.326;-6.298;2023-05-27T08:59:17;4.90;;;2.85;;
24421;SDS011;12600;53.326;-6.298;2023-05-27T09:02:09;7.35;;;2.95;;
24421;SDS011;12600;53.326;-6.298;2023-05-27T09:05:02;4.10;;;2.50;;
24421;SDS011;12600;53.326;-6.298;2023-05-27T09:07:53;5.55;;;2.83;;
24421;SDS011;12600;53.326;-6.298;2023-05-27T09:10:43;4.93;;;2.67;;
24421;SDS011;12600;53.326;-6.298;2023-05-27T09:13:33;4.20;;;2.30;;
24421;SDS011;12600;53.326;-6.298;2023-05-27T09:16:23;5.70;;;2.63;;
24421;SDS011;12600;53.326;-6.298;2023-05-27T09:19:16;4.88;;;2.30;;
24421;SDS011;12600;53.326;-6.298;2023-05-27T09:22:07;5.00;;;2.20;;
24421;SDS011;12600;53.326;-6.298;2023-05-27T09:24:57;5.40;;;2.80;;
24421;SDS011;12600;53.326;-6.298;2023-05-27T09:27:47;4.45;;;2.65;;
24421;SDS011;12600;53.326;-6.298;2023-05-27T09:30:36;6.78;;;2.85;;
24421;SDS011;12600;53.326;-6.298;2023-05-27T09:33:26;7.82;;;2.80;;
24421;SDS011;12600;53.326;-6.298;2023-05-27T09:36:19;4.82;;;2.75;;
24421;SDS011;12600;53.326;-6.298;2023-05-27T09:39:11;6.10;;;2.90;;
24421;SDS011;12600;53.326;-6.298;2023-05-27T09:42:02;6.88;;;3.08;;
24421;SDS011;12600;53.326;-6.298;2023-05-27T09:44:53;6.30;;;2.90;;
24421;SDS011;12600;53.326;-6.298;2023-05-27T09:47:46;5.68;;;2.47;;
24421;SDS011;12600;53.326;-6.298;2023-05-27T09:50:38;6.93;;;2.75;;
24421;SDS011;12600;53.326;-6.298;2023-05-27T09:53:28;4.05;;;2.13;;
24421;SDS011;12600;53.326;-6.298;2023-05-27T09:56:19;4.60;;;2.40;;
24421;SDS011;12600;53.326;-6.298;2023-05-27T10:02:00;5.78;;;3.35;;
24421;SDS011;12600;53.326;-6.298;2023-05-27T10:04:50;5.10;;;2.70;;
24421;SDS011;12600;53.326;-6.298;2023-05-27T10:07:42;5.47;;;3.17;;
24421;SDS011;12600;53.326;-6.298;2023-05-27T10:10:54;7.43;;;3.88;;
24421;SDS011;12600;53.326;-6.298;2023-05-27T10:13:46;5.18;;;2.83;;
24421;SDS011;12600;53.326;-6.298;2023-05-27T10:16:50;4.07;;;2.22;;
24421;SDS011;12600;53.326;-6.298;2023-05-27T10:19:49;5.40;;;2.63;;
24421;SDS011;12600;53.326;-6.298;2023-05-27T10:22:43;6.13;;;2.60;;
24421;SDS011;12600;53.326;-6.298;2023-05-27T10:25:44;5.05;;;3.00;;
24421;SDS011;12600;53.326;-6.298;2023-05-27T10:28:40;8.20;;;3.00;;
24421;SDS011;12600;53.326;-6.298;2023-05-27T10:31:31;6.80;;;3.80;;
24421;SDS011;12600;53.326;-6.298;2023-05-27T10:34:25;6.63;;;3.40;;
24421;SDS011;12600;53.326;-6.298;2023-05-27T10:37:23;6.22;;;3.53;;
24421;SDS011;12600;53.326;-6.298;2023-05-27T10:40:23;8.65;;;3.58;;
24421;SDS011;12600;53.326;-6.298;2023-05-27T10:43:16;11.15;;;3.60;;
24421;SDS011;12600;53.326;-6.298;2023-05-27T10:46:14;6.00;;;3.20;;
24421;SDS011;12600;53.326;-6.298;2023-05-27T10:49:12;8.23;;;3.13;;
24421;SDS011;12600;53.326;-6.298;2023-05-27T10:52:06;6.40;;;2.90;;
24421;SDS011;12600;53.326;-6.298;2023-05-27T10:55:00;7.65;;;2.95;;
24421;SDS011;12600;53.326;-6.298;2023-05-27T10:57:54;4.88;;;2.55;;
24421;SDS011;12600;53.326;-6.298;2023-05-27T11:00:45;5.97;;;2.53;;
24421;SDS011;12600;53.326;-6.298;2023-05-27T11:03:46;5.90;;;2.97;;
24421;SDS011;12600;53.326;-6.298;2023-05-27T11:06:40;8.38;;;3.22;;
24421;SDS011;12600;53.326;-6.298;2023-05-27T11:09:30;6.13;;;2.75;;
24421;SDS011;12600;53.326;-6.298;2023-05-27T11:12:31;8.45;;;3.20;;
24421;SDS011;12600;53.326;-6.298;2023-05-27T11:15:26;6.97;;;3.00;;
24421;SDS011;12600;53.326;-6.298;2023-05-27T11:18:16;5.38;;;3.00;;
24421;SDS011;12600;53.326;-6.298;2023-05-27T11:21:06;7.90;;;3.10;;
24421;SDS011;12600;53.326;-6.298;2023-05-27T11:24:03;5.35;;;3.00;;
24421;SDS011;12600;53.326;-6.298;2023-05-27T11:27:07;6.38;;;2.80;;
24421;SDS011;12600;53.326;-6.298;2023-05-27T11:30:10;4.53;;;2.72;;
24421;SDS011;12600;53.326;-6.298;2023-05-27T11:33:06;7.78;;;2.70;;
24421;SDS011;12600;53.326;-6.298;2023-05-27T11:36:18;5.40;;;2.25;;
24421;SDS011;12600;53.326;-6.298;2023-05-27T11:39:13;4.40;;;2.20;;
24421;SDS011;12600;53.326;-6.298;2023-05-27T11:42:04;5.00;;;2.20;;
24421;SDS011;12600;53.326;-6.298;2023-05-27T11:44:57;6.88;;;2.53;;
24421;SDS011;12600;53.326;-6.298;2023-05-27T11:47:47;4.80;;;2.45;;
24421;SDS011;12600;53.326;-6.298;2023-05-27T11:50:39;3.90;;;2.30;;
24421;SDS011;12600;53.326;-6.298;2023-05-27T11:53:30;4.10;;;2.20;;
24421;SDS011;12600;53.326;-6.298;2023-05-27T11:56:25;6.57;;;2.38;;
24421;SDS011;12600;53.326;-6.298;2023-05-27T11:59:22;5.32;;;2.63;;
24421;SDS011;12600;53.326;-6.298;2023-05-27T12:02:26;6.35;;;2.35;;
24421;SDS011;12600;53.326;-6.298;2023-05-27T12:05:23;5.10;;;2.53;;
24421;SDS011;12600;53.326;-6.298;2023-05-27T12:08:21;5.70;;;3.20;;
24421;SDS011;12600;53.326;-6.298;2023-05-27T12:11:10;4.78;;;2.50;;
24421;SDS011;12600;53.326;-6.298;2023-05-27T12:14:01;5.07;;;2.55;;
24421;SDS011;12600;53.326;-6.298;2023-05-27T12:16:52;5.93;;;2.70;;
24421;SDS011;12600;53.326;-6.298;2023-05-27T12:19:41;6.32;;;3.03;;
24421;SDS011;12600;53.326;-6.298;2023-05-27T12:22:31;8.77;;;3.75;;
24421;SDS011;12600;53.326;-6.298;2023-05-27T12:25:21;5.47;;;2.63;;
24421;SDS011;12600;53.326;-6.298;2023-05-27T12:28:10;7.15;;;3.00;;
24421;SDS011;12600;53.326;-6.298;2023-05-27T12:31:01;6.20;;;2.63;;
24421;SDS011;12600;53.326;-6.298;2023-05-27T12:33:51;5.38;;;2.47;;
24421;SDS011;12600;53.326;-6.298;2023-05-27T12:36:41;3.30;;;2.17;;
24421;SDS011;12600;53.326;-6.298;2023-05-27T12:39:30;6.32;;;2.30;;
24421;SDS011;12600;53.326;-6.298;2023-05-27T12:42:20;4.07;;;2.30;;
24421;SDS011;12600;53.326;-6.298;2023-05-27T12:45:09;4.07;;;1.80;;
24421;SDS011;12600;53.326;-6.298;2023-05-27T12:48:01;3.33;;;1.85;;
24421;SDS011;12600;53.326;-6.298;2023-05-27T12:50:51;5.45;;;1.92;;
24421;SDS011;12600;53.326;-6.298;2023-05-27T12:53:41;2.35;;;1.70;;
24421;SDS011;12600;53.326;-6.298;2023-05-27T12:56:30;3.22;;;1.90;;
24421;SDS011;12600;53.326;-6.298;2023-05-27T12:59:19;5.93;;;1.90;;
24421;SDS011;12600;53.326;-6.298;2023-05-27T13:02:09;8.45;;;2.60;;
24421;SDS011;12600;53.326;-6.298;2023-05-27T13:05:00;21.60;;;2.50;;
24421;SDS011;12600;53.326;-6.298;2023-05-27T13:07:53;4.90;;;2.33;;
24421;SDS011;12600;53.326;-6.298;2023-05-27T13:10:46;4.63;;;2.30;;
24421;SDS011;12600;53.326;-6.298;2023-05-27T13:13:35;4.45;;;3.10;;
24421;SDS011;12600;53.326;-6.298;2023-05-27T13:16:25;4.22;;;2.58;;
24421;SDS011;12600;53.326;-6.298;2023-05-27T13:19:14;7.57;;;3.30;;
24421;SDS011;12600;53.326;-6.298;2023-05-27T13:22:05;6.40;;;2.92;;
24421;SDS011;12600;53.326;-6.298;2023-05-27T13:24:54;4.20;;;2.47;;
24421;SDS011;12600;53.326;-6.298;2023-05-27T13:27:44;7.18;;;2.67;;
24421;SDS011;12600;53.326;-6.298;2023-05-27T13:30:33;30.00;;;16.88;;
24421;SDS011;12600;53.326;-6.298;2023-05-27T13:33:23;6.88;;;3.00;;
24421;SDS011;12600;53.326;-6.298;2023-05-27T13:36:12;8.15;;;2.90;;
24421;SDS011;12600;53.326;-6.298;2023-05-27T13:39:03;8.35;;;2.80;;
24421;SDS011;12600;53.326;-6.298;2023-05-27T13:41:52;7.63;;;2.80;;
24421;SDS011;12600;53.326;-6.298;2023-05-27T13:44:42;5.70;;;2.90;;
24421;SDS011;12600;53.326;-6.298;2023-05-27T13:47:32;5.97;;;2.67;;
24421;SDS011;12600;53.326;-6.298;2023-05-27T13:50:21;6.35;;;4.05;;
24421;SDS011;12600;53.326;-6.298;2023-05-27T13:53:11;5.63;;;2.47;;
24421;SDS011;12600;53.326;-6.298;2023-05-27T13:56:01;6.43;;;2.72;;
24421;SDS011;12600;53.326;-6.298;2023-05-27T13:58:51;5.80;;;2.60;;
24421;SDS011;12600;53.326;-6.298;2023-05-27T14:01:41;5.72;;;3.10;;
24421;SDS011;12600;53.326;-6.298;2023-05-27T14:04:31;4.22;;;2.30;;
24421;SDS011;12600;53.326;-6.298;2023-05-27T14:07:20;4.72;;;2.50;;
24421;SDS011;12600;53.326;-6.298;2023-05-27T14:10:10;3.08;;;2.15;;
24421;SDS011;12600;53.326;-6.298;2023-05-27T14:13:01;3.55;;;2.13;;
24421;SDS011;12600;53.326;-6.298;2023-05-27T14:15:52;4.63;;;2.30;;
24421;SDS011;12600;53.326;-6.298;2023-05-27T14:18:42;3.63;;;2.22;;
24421;SDS011;12600;53.326;-6.298;2023-05-27T14:21:31;2.58;;;2.10;;
24421;SDS011;12600;53.326;-6.298;2023-05-27T14:24:21;3.80;;;2.53;;
24421;SDS011;12600;53.326;-6.298;2023-05-27T14:27:10;3.92;;;2.92;;
24421;SDS011;12600;53.326;-6.298;2023-05-27T14:30:02;5.55;;;3.40;;
24421;SDS011;12600;53.326;-6.298;2023-05-27T14:32:51;4.07;;;2.50;;
24421;SDS011;12600;53.326;-6.298;2023-05-27T14:35:41;5.00;;;2.20;;
24421;SDS011;12600;53.326;-6.298;2023-05-27T14:38:33;3.83;;;2.35;;
24421;SDS011;12600;53.326;-6.298;2023-05-27T14:41:22;5.10;;;2.67;;
24421;SDS011;12600;53.326;-6.298;2023-05-27T14:44:13;4.45;;;2.42;;
24421;SDS011;12600;53.326;-6.298;2023-05-27T14:47:04;5.10;;;2.17;;
24421;SDS011;12600;53.326;-6.298;2023-05-27T14:49:54;4.07;;;2.45;;
24421;SDS011;12600;53.326;-6.298;2023-05-27T14:52:44;4.93;;;2.10;;
24421;SDS011;12600;53.326;-6.298;2023-05-27T14:55:33;3.03;;;2.20;;
24421;SDS011;12600;53.326;-6.298;2023-05-27T14:58:22;3.45;;;1.80;;
24421;SDS011;12600;53.326;-6.298;2023-05-27T15:01:12;3.70;;;1.90;;
24421;SDS011;12600;53.326;-6.298;2023-05-27T15:04:03;3.22;;;2.20;;
24421;SDS011;12600;53.326;-6.298;2023-05-27T15:06:53;4.47;;;1.80;;
24421;SDS011;12600;53.326;-6.298;2023-05-27T15:09:43;4.32;;;2.42;;
24421;SDS011;12600;53.326;-6.298;2023-05-27T15:12:39;6.18;;;3.33;;
24421;SDS011;12600;53.326;-6.298;2023-05-27T15:15:30;4.10;;;2.53;;
24421;SDS011;12600;53.326;-6.298;2023-05-27T15:18:19;3.88;;;2.35;;
24421;SDS011;12600;53.326;-6.298;2023-05-27T15:21:10;3.22;;;2.20;;
24421;SDS011;12600;53.326;-6.298;2023-05-27T15:24:02;3.30;;;2.00;;
24421;SDS011;12600;53.326;-6.298;2023-05-27T15:26:52;4.40;;;2.00;;
24421;SDS011;12600;53.326;-6.298;2023-05-27T15:29:43;3.28;;;2.20;;
24421;SDS011;12600;53.326;-6.298;2023-05-27T15:32:33;4.70;;;3.05;;
24421;SDS011;12600;53.326;-6.298;2023-05-27T15:35:23;3.17;;;2.10;;
24421;SDS011;12600;53.326;-6.298;2023-05-27T15:38:14;3.17;;;2.40;;
24421;SDS011;12600;53.326;-6.298;2023-05-27T15:41:04;5.28;;;2.67;;
24421;SDS011;12600;53.326;-6.298;2023-05-27T15:43:54;5.18;;;2.47;;
24421;SDS011;12600;53.326;-6.298;2023-05-27T15:46:43;3.03;;;2.05;;
24421;SDS011;12600;53.326;-6.298;2023-05-27T15:49:33;3.60;;;1.92;;
24421;SDS011;12600;53.326;-6.298;2023-05-27T15:52:22;3.10;;;2.00;;
24421;SDS011;12600;53.326;-6.298;2023-05-27T15:55:13;5.13;;;2.40;;
24421;SDS011;12600;53.326;-6.298;2023-05-27T15:58:02;4.90;;;2.30;;
24421;SDS011;12600;53.326;-6.298;2023-05-27T16:00:52;3.70;;;1.90;;
24421;SDS011;12600;53.326;-6.298;2023-05-27T16:03:41;5.25;;;2.50;;
24421;SDS011;12600;53.326;-6.298;2023-05-27T16:06:31;3.20;;;2.03;;
24421;SDS011;12600;53.326;-6.298;2023-05-27T16:09:20;5.05;;;2.63;;
24421;SDS011;12600;53.326;-6.298;2023-05-27T16:12:12;4.13;;;2.50;;
24421;SDS011;12600;53.326;-6.298;2023-05-27T16:15:02;4.10;;;2.42;;
24421;SDS011;12600;53.326;-6.298;2023-05-27T16:17:53;7.72;;;4.03;;
24421;SDS011;12600;53.326;-6.298;2023-05-27T16:20:42;3.05;;;2.28;;
24421;SDS011;12600;53.326;-6.298;2023-05-27T16:23:31;4.85;;;2.67;;
24421;SDS011;12600;53.326;-6.298;2023-05-27T16:26:21;4.03;;;2.60;;
24421;SDS011;12600;53.326;-6.298;2023-05-27T16:29:12;3.67;;;2.30;;
24421;SDS011;12600;53.326;-6.298;2023-05-27T16:32:01;4.68;;;2.85;;
24421;SDS011;12600;53.326;-6.298;2023-05-27T16:34:54;4.07;;;2.22;;
24421;SDS011;12600;53.326;-6.298;2023-05-27T16:37:43;3.38;;;2.20;;
24421;SDS011;12600;53.326;-6.298;2023-05-27T16:40:33;3.97;;;2.40;;
24421;SDS011;12600;53.326;-6.298;2023-05-27T16:43:22;3.80;;;2.38;;
24421;SDS011;12600;53.326;-6.298;2023-05-27T16:46:13;3.33;;;2.30;;
24421;SDS011;12600;53.326;-6.298;2023-05-27T16:49:03;4.80;;;2.47;;
24421;SDS011;12600;53.326;-6.298;2023-05-27T16:51:52;4.70;;;2.30;;
24421;SDS011;12600;53.326;-6.298;2023-05-27T16:54:42;3.40;;;2.20;;
24421;SDS011;12600;53.326;-6.298;2023-05-27T16:57:31;3.28;;;2.17;;
24421;SDS011;12600;53.326;-6.298;2023-05-27T17:00:21;4.22;;;2.60;;
24421;SDS011;12600;53.326;-6.298;2023-05-27T17:03:12;4.38;;;2.60;;
24421;SDS011;12600;53.326;-6.298;2023-05-27T17:06:02;5.07;;;3.13;;
24421;SDS011;12600;53.326;-6.298;2023-05-27T17:08:52;4.45;;;2.58;;